Time;durP1;ratioP1;P1;durP2;ratioP2;P2;SDS_P1;SDS_P2;PMS_P1;PMS_P2;Temp;Humidity;BMP_temperature;BMP_pressure;BME280_temperature;BME280_humidity;BME280_pressure;Samples;Min_cycle;Max_cycle;Signal;HPM_P1;HPM_P2
2023/09/01 00:00:03;;;;;;;8.73;5.70;;;;;;;22.25;77.62;97054.72;5071652;28;20304;-79
2023/09/01 00:02:34;;;;;;;8.83;5.40;;;;;;;21.87;77.58;97041.56;5090325;28;20198;-80
2023/09/01 00:05:07;;;;;;;7.60;5.60;;;;;;;21.73;78.12;97058.59;5071723;28;20195;-76
2023/09/01 00:07:35;;;;;;;7.97;6.00;;;;;;;21.76;78.99;97068.03;5089520;28;20241;-75
2023/09/01 00:10:03;;;;;;;9.07;5.67;;;;;;;21.73;78.77;97061.22;5071385;28;20673;-83
2023/09/01 00:12:31;;;;;;;8.80;5.57;;;;;;;21.97;78.05;97068.75;5071625;28;20709;-78
2023/09/01 00:14:59;;;;;;;9.47;5.67;;;;;;;22.07;75.84;97072.22;5054753;28;20597;-74
2023/09/01 00:17:26;;;;;;;7.43;5.27;;;;;;;21.88;75.58;97074.88;5071384;28;20192;-80
2023/09/01 00:19:54;;;;;;;7.83;4.87;;;;;;;21.98;75.83;97078.34;5070553;28;20190;-77
2023/09/01 00:22:21;;;;;;;8.60;5.00;;;;;;;21.89;76.08;97073.88;5090243;28;20201;-82
2023/09/01 00:24:50;;;;;;;6.10;3.73;;;;;;;21.88;75.99;97080.97;5089300;28;20193;-81
2023/09/01 00:27:18;;;;;;;4.27;3.50;;;;;;;21.71;76.54;97064.97;5089854;28;20577;-80
2023/09/01 00:29:45;;;;;;;4.00;3.60;;;;;;;21.74;76.04;97078.69;5071343;28;20256;-82
2023/09/01 00:32:12;;;;;;;5.07;3.17;;;;;;;21.62;76.47;97068.41;5071220;28;20186;-74
2023/09/01 00:34:39;;;;;;;7.77;3.60;;;;;;;21.59;77.29;97085.38;5090205;28;20277;-81
2023/09/01 00:37:07;;;;;;;4.83;3.70;;;;;;;21.39;77.62;97077.56;5070868;28;20193;-77
2023/09/01 00:39:34;;;;;;;8.00;3.77;;;;;;;21.23;78.76;97085.13;5070919;28;20669;-77
2023/09/01 00:42:03;;;;;;;5.27;3.40;;;;;;;21.30;79.25;97081.00;5053928;28;20670;-73
2023/09/01 00:44:32;;;;;;;4.80;3.83;;;;;;;21.36;78.93;97075.19;5071140;28;20230;-76
2023/09/01 00:46:59;;;;;;;6.67;3.57;;;;;;;21.26;79.26;97071.69;5088624;28;20185;-74
2023/09/01 00:49:26;;;;;;;4.23;3.60;;;;;;;21.06;79.17;97066.38;5070543;28;20282;-74
2023/09/01 00:51:53;;;;;;;6.77;3.50;;;;;;;21.27;79.18;97083.91;5070672;28;20226;-81
2023/09/01 00:54:22;;;;;;;7.73;4.30;;;;;;;21.18;79.08;97071.53;5089075;28;20552;-73
2023/09/01 00:56:53;;;;;;;5.37;3.40;;;;;;;20.85;80.58;97068.22;5070916;28;20199;-80
2023/09/01 00:59:21;;;;;;;5.47;3.97;;;;;;;21.02;80.29;97080.75;5070673;28;20194;-74
2023/09/01 01:01:49;;;;;;;6.47;3.47;;;;;;;21.08;79.89;97065.41;5088919;28;20281;-79
2023/09/01 01:04:20;;;;;;;5.70;4.07;;;;;;;21.31;79.19;97080.84;5070105;28;20749;-82
2023/09/01 01:07:06;;;;;;;7.70;3.97;;;;;;;21.38;78.53;97078.50;5088444;28;20205;-76
2023/09/01 01:09:46;;;;;;;5.77;4.20;;;;;;;21.37;78.07;97082.94;5088205;28;20596;-81
2023/09/01 01:12:44;;;;;;;6.37;4.40;;;;;;;21.25;78.73;97097.19;5088031;28;20217;-77
2023/09/01 01:15:14;;;;;;;7.47;3.77;;;;;;;21.25;78.83;97091.09;5088357;28;20630;-74
2023/09/01 01:17:46;;;;;;;6.40;4.00;;;;;;;21.34;78.16;97093.78;5069961;28;20205;-72
2023/09/01 01:20:28;;;;;;;7.20;3.80;;;;;;;21.23;77.60;97077.22;5069725;28;20182;-78
2023/09/01 01:23:16;;;;;;;7.00;3.93;;;;;;;21.05;78.47;97083.16;5070609;28;20177;-74
2023/09/01 01:25:48;;;;;;;8.73;5.20;;;;;;;21.15;78.88;97096.34;5053151;28;20194;-83
2023/09/01 01:28:16;;;;;;;6.23;4.30;;;;;;;21.06;78.45;97092.69;5069664;28;20198;-73
2023/09/01 01:30:46;;;;;;;6.30;4.83;;;;;;;21.06;77.93;97084.78;5069284;28;20182;-74
2023/09/01 01:33:43;;;;;;;7.63;4.90;;;;;;;21.20;77.07;97093.31;5087694;28;20185;-73
2023/09/01 01:36:37;;;;;;;7.73;4.27;;;;;;;21.29;76.18;97087.25;5069892;28;20212;-77
2023/09/01 01:39:17;;;;;;;7.50;4.27;;;;;;;21.33;76.57;97086.00;5087611;28;20195;-72
2023/09/01 01:41:53;;;;;;;5.37;4.23;;;;;;;21.33;75.72;97091.28;5069356;28;20858;-76
2023/09/01 01:44:36;;;;;;;8.00;4.43;;;;;;;21.55;74.52;97076.06;5069786;28;20277;-75
2023/09/01 01:47:06;;;;;;;6.07;4.40;;;;;;;21.56;73.27;97063.69;5069461;28;20244;-80
2023/09/01 01:49:35;;;;;;;7.13;4.30;;;;;;;21.54;73.70;97066.47;5087795;28;20194;-79
2023/09/01 01:52:02;;;;;;;6.03;5.13;;;;;;;21.17;75.61;97083.03;5069221;28;20583;-75
2023/09/01 01:54:30;;;;;;;6.97;4.60;;;;;;;21.00;76.02;97072.13;5087543;28;20222;-77
2023/09/01 01:56:59;;;;;;;6.17;4.60;;;;;;;21.02;75.52;97069.38;5069164;28;20177;-77
2023/09/01 01:59:26;;;;;;;6.07;4.67;;;;;;;20.91;75.74;97067.69;5070393;28;20178;-76
2023/09/01 02:01:54;;;;;;;5.00;4.30;;;;;;;20.87;75.70;97078.59;5069581;28;20680;-75
2023/09/01 02:04:22;;;;;;;5.10;4.10;;;;;;;20.77;75.36;97044.31;5052446;28;20197;-80
2023/09/01 02:06:49;;;;;;;7.23;4.47;;;;;;;20.96;75.10;97070.72;5053067;28;20201;-76
2023/09/01 02:09:16;;;;;;;5.27;3.83;;;;;;;21.10;74.93;97061.69;5069761;28;20283;-80
2023/09/01 02:11:43;;;;;;;6.27;4.30;;;;;;;21.10;74.80;97052.94;5087907;28;20193;-83
2023/09/01 02:14:11;;;;;;;6.83;4.10;;;;;;;21.21;74.20;97066.81;5088304;28;20181;-77
2023/09/01 02:16:39;;;;;;;6.00;4.20;;;;;;;21.26;74.13;97069.06;5070082;28;20238;-73
2023/09/01 02:19:09;;;;;;;7.40;4.10;;;;;;;21.25;73.89;97070.00;5088297;28;20192;-79
2023/09/01 02:21:39;;;;;;;5.97;4.17;;;;;;;21.10;73.77;97045.88;5087555;28;20282;-81
2023/09/01 02:24:06;;;;;;;5.37;4.10;;;;;;;21.00;73.80;97051.06;5089739;28;20240;-77
2023/09/01 02:26:34;;;;;;;6.30;4.50;;;;;;;21.15;73.95;97069.16;5070398;28;20193;-76
2023/09/01 02:29:05;;;;;;;5.67;3.77;;;;;;;21.21;73.43;97080.00;5052429;28;20224;-73
2023/09/01 02:31:32;;;;;;;5.93;4.03;;;;;;;21.33;72.73;97068.38;5069130;28;20185;-73
2023/09/01 02:33:59;;;;;;;6.07;3.67;;;;;;;21.30;72.69;97065.19;5070010;28;20263;-83
2023/09/01 02:36:35;;;;;;;7.57;4.57;;;;;;;21.33;73.15;97062.28;5074172;28;20873;-82
2023/09/01 02:39:04;;;;;;;4.27;3.40;;;;;;;21.29;72.91;97063.53;5089476;28;20194;-74
2023/09/01 02:41:32;;;;;;;6.57;4.03;;;;;;;21.05;73.83;97062.06;5089696;28;20248;-76
2023/09/01 02:43:59;;;;;;;6.27;3.87;;;;;;;20.99;74.04;97056.47;5055187;28;20202;-79
2023/09/01 02:46:26;;;;;;;6.87;4.47;;;;;;;20.96;74.41;97059.34;5089919;28;20192;-77
2023/09/01 02:48:53;;;;;;;4.70;3.80;;;;;;;20.83;74.49;97053.50;5087235;28;20220;-82
2023/09/01 02:51:21;;;;;;;5.67;4.10;;;;;;;20.82;74.71;97054.47;5086573;28;20188;-75
2023/09/01 02:53:49;;;;;;;9.47;4.43;;;;;;;20.71;74.99;97044.84;5052044;28;20246;-72
2023/09/01 02:56:17;;;;;;;8.43;4.27;;;;;;;20.68;75.50;97049.56;5068339;28;20192;-80
2023/09/01 02:58:45;;;;;;;5.17;3.73;;;;;;;20.57;75.90;97045.22;5086571;28;20563;-71
2023/09/01 03:01:13;;;;;;;9.30;3.97;;;;;;;20.76;75.57;97041.84;5068729;28;20695;-78
2023/09/01 03:03:41;;;;;;;5.70;4.10;;;;;;;20.79;75.29;97057.38;5070062;28;20189;-81
2023/09/01 03:06:09;;;;;;;6.10;4.20;;;;;;;20.82;74.73;97036.88;5071728;28;20216;-79
2023/09/01 03:08:38;;;;;;;8.03;4.23;;;;;;;20.71;75.38;97050.13;5071528;28;20212;-73
2023/09/01 03:11:06;;;;;;;7.50;4.27;;;;;;;20.82;75.27;97047.41;5087399;28;20189;-71
2023/09/01 03:13:34;;;;;;;8.37;4.23;;;;;;;20.64;75.59;97046.38;5068054;28;20228;-73
2023/09/01 03:16:03;;;;;;;5.23;4.23;;;;;;;20.77;74.75;97049.59;5066468;28;20188;-73
2023/09/01 03:18:32;;;;;;;6.53;4.40;;;;;;;20.77;75.22;97054.84;5068948;28;20192;-73
2023/09/01 03:21:11;;;;;;;5.90;4.40;;;;;;;20.82;75.00;97050.03;5070834;28;20235;-74
2023/09/01 03:23:41;;;;;;;8.30;4.53;;;;;;;20.97;74.26;97061.88;5069462;28;20203;-73
2023/09/01 03:26:09;;;;;;;6.53;4.43;;;;;;;20.85;74.52;97047.16;5087383;28;20698;-70
2023/09/01 03:28:39;;;;;;;7.20;4.93;;;;;;;20.69;75.37;97046.78;5085137;28;20207;-73
2023/09/01 03:31:11;;;;;;;6.93;4.17;;;;;;;20.71;75.47;97044.84;5060989;28;20196;-82
2023/09/01 03:33:41;;;;;;;7.70;4.80;;;;;;;20.68;75.38;97050.41;5071676;28;20192;-81
2023/09/01 03:36:10;;;;;;;7.43;5.00;;;;;;;20.79;75.43;97054.75;5071391;28;20204;-72
2023/09/01 03:38:38;;;;;;;10.33;6.13;;;;;;;20.74;75.53;97054.28;5032316;28;20210;-71
2023/09/01 03:41:07;;;;;;;7.40;4.40;;;;;;;20.83;74.64;97043.81;5048667;28;20238;-72
2023/09/01 03:43:35;;;;;;;9.70;4.47;;;;;;;20.85;75.11;97062.09;5084100;28;20193;-73
2023/09/01 03:46:03;;;;;;;6.73;4.47;;;;;;;20.68;75.34;97045.13;5068092;28;20188;-71
2023/09/01 03:48:31;;;;;;;7.53;4.97;;;;;;;20.77;75.27;97057.47;5067603;28;20461;-82
2023/09/01 03:51:25;;;;;;;7.47;4.27;;;;;;;20.73;75.57;97057.91;5067909;28;20212;-72
2023/09/01 03:53:52;;;;;;;6.33;4.23;;;;;;;20.74;75.75;97065.66;5083717;28;20745;-78
2023/09/01 03:56:20;;;;;;;6.00;4.33;;;;;;;20.64;76.04;97062.16;5045032;28;20263;-71
2023/09/01 03:58:47;;;;;;;9.40;4.37;;;;;;;20.75;75.59;97051.53;5071672;28;20593;-71
2023/09/01 04:01:14;;;;;;;7.07;4.10;;;;;;;20.62;76.32;97060.63;5073066;28;20229;-73
2023/09/01 04:03:42;;;;;;;9.97;4.70;;;;;;;20.64;76.31;97049.00;5073090;28;20200;-80
2023/09/01 04:06:11;;;;;;;8.73;5.30;;;;;;;20.69;75.78;97059.94;5068787;28;20599;-72
2023/09/01 04:08:40;;;;;;;8.33;4.87;;;;;;;20.60;75.87;97068.66;5071841;28;20660;-74
2023/09/01 04:11:10;;;;;;;6.47;4.63;;;;;;;20.47;75.98;97052.22;5084698;28;20208;-75
2023/09/01 04:13:37;;;;;;;11.03;5.20;;;;;;;20.68;75.41;97039.88;5051349;28;20270;-76
2023/09/01 04:16:05;;;;;;;6.97;4.03;;;;;;;20.89;74.65;97059.09;5081074;28;20753;-72
2023/09/01 04:18:33;;;;;;;7.13;4.40;;;;;;;21.08;73.96;97059.16;5071128;28;20207;-83
2023/09/01 04:21:00;;;;;;;7.73;4.13;;;;;;;21.15;74.34;97063.88;5062027;28;20278;-81
2023/09/01 04:23:28;;;;;;;6.83;4.63;;;;;;;21.34;73.52;97054.25;5084896;28;20190;-74
2023/09/01 04:25:56;;;;;;;8.03;4.30;;;;;;;21.46;72.52;97063.69;5034607;28;20217;-78
2023/09/01 04:28:27;;;;;;;6.27;4.43;;;;;;;21.71;71.90;97067.59;5050696;28;20645;-77
2023/09/01 04:30:59;;;;;;;8.03;4.83;;;;;;;21.92;71.17;97076.25;5033895;28;20589;-81
2023/09/01 04:33:28;;;;;;;9.70;5.50;;;;;;;22.03;71.03;97081.38;5051036;28;20277;-76
2023/09/01 04:36:00;;;;;;;8.97;4.03;;;;;;;22.22;71.07;97086.66;5050559;28;20205;-73
2023/09/01 04:38:28;;;;;;;8.57;4.97;;;;;;;22.47;69.46;97077.31;5049491;28;20266;-75
2023/09/01 04:40:59;;;;;;;10.60;5.00;;;;;;;22.29;69.68;97079.00;5049382;28;20305;-82
2023/09/01 04:43:29;;;;;;;10.17;5.10;;;;;;;22.60;69.50;97080.50;5050335;28;20214;-82
2023/09/01 04:45:57;;;;;;;9.33;4.20;;;;;;;22.59;69.26;97082.31;5050799;28;20722;-83
2023/09/01 04:48:27;;;;;;;5.27;3.90;;;;;;;22.60;69.33;97072.59;5052048;28;20189;-79
2023/09/01 04:50:54;;;;;;;9.40;5.93;;;;;;;22.57;69.47;97088.66;5054114;28;20650;-83
2023/09/01 04:53:23;;;;;;;8.63;4.67;;;;;;;22.88;67.90;97092.78;5053911;28;20275;-80
2023/09/01 04:55:51;;;;;;;8.70;5.07;;;;;;;22.79;67.27;97092.81;5070157;28;20440;-79
2023/09/01 04:58:19;;;;;;;5.70;3.83;;;;;;;22.37;67.33;97073.84;5069783;28;20276;-77
2023/09/01 05:00:47;;;;;;;9.03;3.37;;;;;;;22.75;66.54;97094.09;5053054;28;20192;-74
2023/09/01 05:03:15;;;;;;;10.40;6.57;;;;;;;22.73;66.68;97088.13;5087973;28;20714;-81
2023/09/01 05:05:42;;;;;;;5.23;3.90;;;;;;;22.99;66.73;97094.41;5069893;28;20194;-77
2023/09/01 05:08:10;;;;;;;9.80;3.73;;;;;;;23.40;64.50;97109.84;5070122;28;20255;-74
2023/09/01 05:10:38;;;;;;;9.10;3.90;;;;;;;23.35;63.87;97099.69;5088180;28;20677;-74
2023/09/01 05:13:05;;;;;;;7.57;3.93;;;;;;;23.18;64.92;97107.56;5069755;28;20659;-73
2023/09/01 05:15:34;;;;;;;4.57;3.27;;;;;;;23.04;64.51;97105.38;5087878;28;20184;-77
2023/09/01 05:18:02;;;;;;;6.17;3.77;;;;;;;23.28;64.54;97110.97;5087653;28;20263;-73
2023/09/01 05:20:30;;;;;;;10.13;4.03;;;;;;;23.56;64.14;97110.00;5069324;28;20284;-73
2023/09/01 05:22:58;;;;;;;7.87;3.30;;;;;;;23.56;63.19;97107.38;5069496;28;20217;-74
2023/09/01 05:25:26;;;;;;;7.40;3.63;;;;;;;23.73;63.52;97111.03;5065964;28;20259;-73
2023/09/01 05:27:56;;;;;;;5.93;3.40;;;;;;;23.36;64.04;97095.25;5087314;28;20197;-72
2023/09/01 05:30:24;;;;;;;5.63;3.33;;;;;;;23.36;64.66;97114.59;5069674;28;20194;-74
2023/09/01 05:32:52;;;;;;;5.87;3.60;;;;;;;23.13;65.51;97115.06;5052826;28;20201;-77
2023/09/01 05:35:19;;;;;;;5.47;4.17;;;;;;;23.41;65.36;97114.16;5069556;28;20274;-72
2023/09/01 05:37:47;;;;;;;10.70;4.03;;;;;;;23.35;64.90;97080.34;5053396;28;20191;-82
2023/09/01 05:40:17;;;;;;;4.97;3.70;;;;;;;23.60;65.08;97124.59;5069378;28;20195;-75
2023/09/01 05:42:46;;;;;;;5.20;3.60;;;;;;;23.60;66.01;97115.81;5081119;28;20305;-81
2023/09/01 05:45:13;;;;;;;5.47;3.40;;;;;;;23.63;65.76;97120.84;5049154;28;20700;-79
2023/09/01 05:47:43;;;;;;;6.73;3.50;;;;;;;24.13;64.81;97125.50;5067981;28;20222;-78
2023/09/01 05:50:11;;;;;;;6.77;4.40;;;;;;;24.31;63.10;97127.31;5037891;28;20674;-74
2023/09/01 05:52:38;;;;;;;10.20;4.60;;;;;;;24.37;63.54;97124.91;5032332;28;20198;-73
2023/09/01 05:55:05;;;;;;;6.63;3.90;;;;;;;24.62;62.52;97104.72;5049466;28;20813;-73
2023/09/01 05:57:33;;;;;;;7.37;4.13;;;;;;;24.73;61.25;97125.69;5066826;28;20661;-73
2023/09/01 06:00:01;;;;;;;8.77;4.20;;;;;;;24.96;61.51;97124.19;5048898;28;20230;-76
2023/09/01 06:02:40;;;;;;;9.93;4.33;;;;;;;24.94;61.23;97111.09;5050095;28;20253;-72
2023/09/01 06:05:07;;;;;;;6.50;3.73;;;;;;;25.04;61.78;97133.00;5048106;28;20228;-70
2023/09/01 06:07:37;;;;;;;6.87;4.10;;;;;;;25.26;59.94;97126.34;5047661;28;20291;-71
2023/09/01 06:10:05;;;;;;;7.50;4.13;;;;;;;25.22;59.49;97124.16;5083211;28;20190;-73
2023/09/01 06:12:32;;;;;;;10.13;5.17;;;;;;;25.59;58.69;97136.13;5088858;28;20625;-76
2023/09/01 06:15:00;;;;;;;6.83;3.97;;;;;;;25.56;57.54;97123.19;5086217;28;20209;-76
2023/09/01 06:17:31;;;;;;;5.83;3.13;;;;;;;25.48;54.89;97131.09;5067496;28;20638;-81
2023/09/01 06:20:13;;;;;;;5.90;3.53;;;;;;;25.77;54.22;97122.75;5086189;28;20253;-75
2023/09/01 06:22:47;;;;;;;4.80;3.03;;;;;;;25.41;51.43;97087.63;5086591;28;20215;-75
2023/09/01 06:25:14;;;;;;;5.47;2.93;;;;;;;25.70;52.65;97151.75;5086752;28;20714;-73
2023/09/01 06:27:42;;;;;;;6.13;3.40;;;;;;;25.69;52.45;97133.34;5085668;28;20199;-75
2023/09/01 06:30:09;;;;;;;7.33;4.27;;;;;;;25.77;53.33;97141.31;5068409;28;20596;-74
2023/09/01 06:32:37;;;;;;;4.47;3.00;;;;;;;25.99;51.62;97122.13;5067894;28;20185;-78
2023/09/01 06:35:09;;;;;;;7.97;3.80;;;;;;;26.06;49.67;97143.53;5051042;28;20243;-81
2023/09/01 06:37:36;;;;;;;3.17;2.20;;;;;;;26.09;46.42;97145.91;5050836;28;20285;-78
2023/09/01 06:40:04;;;;;;;2.37;2.17;;;;;;;26.13;44.95;97152.56;5067758;28;20193;-81
2023/09/01 06:42:32;;;;;;;3.10;1.97;;;;;;;26.11;44.12;97138.63;5067299;28;20246;-75
2023/09/01 06:44:59;;;;;;;1.90;1.70;;;;;;;25.94;44.34;97137.72;5050770;28;20250;-74
2023/09/01 06:47:29;;;;;;;1.93;1.63;;;;;;;26.11;43.44;97146.59;5068204;28;20185;-75
2023/09/01 06:49:56;;;;;;;4.33;1.90;;;;;;;26.10;43.83;97160.84;5085589;28;20711;-71
2023/09/01 06:52:23;;;;;;;1.63;1.53;;;;;;;26.22;43.71;97175.44;5068994;28;20203;-77
2023/09/01 06:54:51;;;;;;;1.70;1.60;;;;;;;26.32;43.88;97174.31;5053359;28;20213;-76
2023/09/01 06:57:18;;;;;;;1.80;1.60;;;;;;;26.22;43.47;97167.50;5066840;28;20890;-76
2023/09/01 06:59:46;;;;;;;4.13;1.60;;;;;;;25.94;43.51;97116.50;5067298;28;20192;-78
2023/09/01 07:02:13;;;;;;;6.97;2.10;;;;;;;26.35;43.01;97175.81;5085304;28;20622;-77
2023/09/01 07:04:41;;;;;;;2.70;1.70;;;;;;;26.11;43.18;97173.13;5067769;28;20280;-77
2023/09/01 07:07:08;;;;;;;5.57;2.20;;;;;;;26.13;43.62;97173.78;5067099;28;21451;-77
2023/09/01 07:09:35;;;;;;;3.13;1.43;;;;;;;25.57;43.71;97093.03;5085428;28;20195;-79
2023/09/01 07:12:03;;;;;;;2.93;1.60;;;;;;;26.06;43.64;97178.06;5066162;28;20228;-79
2023/09/01 07:14:32;;;;;;;3.77;1.60;;;;;;;25.88;43.81;97143.69;5071874;28;20211;-78
2023/09/01 07:17:39;;;;;;;3.93;2.23;;;;;;;26.24;43.19;97176.97;5066577;28;20294;-74
2023/09/01 07:20:21;;;;;;;1.97;1.77;;;;;;;26.25;42.89;97167.19;5079463;28;20292;-83
2023/09/01 07:22:49;;;;;;;1.90;1.50;;;;;;;26.12;42.87;97157.03;5071435;28;20244;-77
2023/09/01 07:25:17;;;;;;;1.77;1.67;;;;;;;26.19;43.50;97183.75;5068986;28;20185;-74
2023/09/01 07:27:46;;;;;;;2.87;1.73;;;;;;;26.19;43.38;97181.09;5031030;28;20294;-73
2023/09/01 07:30:15;;;;;;;2.33;1.60;;;;;;;26.12;42.83;97185.41;5067440;28;20212;-74
2023/09/01 07:32:46;;;;;;;1.50;1.40;;;;;;;26.09;42.89;97161.84;5017810;28;20205;-77
2023/09/01 07:35:17;;;;;;;3.23;1.63;;;;;;;25.52;43.95;97094.47;5034626;28;20200;-77
2023/09/01 07:37:44;;;;;;;3.23;1.63;;;;;;;26.09;43.45;97199.00;5017975;28;20204;-76
2023/09/01 07:40:16;;;;;;;1.73;1.40;;;;;;;26.03;43.67;97189.00;5034066;28;20673;-82
2023/09/01 07:42:51;;;;;;;1.43;1.33;;;;;;;26.04;43.93;97211.91;5012415;28;20233;-76
2023/09/01 07:45:22;;;;;;;2.57;1.70;;;;;;;25.89;43.87;97171.88;4994723;28;20199;-75
2023/09/01 07:47:49;;;;;;;1.73;1.63;;;;;;;26.01;43.38;97198.97;5028839;28;20191;-74
2023/09/01 07:50:36;;;;;;;1.50;1.40;;;;;;;26.04;43.57;97196.81;5028017;28;20332;-75
2023/09/01 07:53:03;;;;;;;2.20;1.57;;;;;;;26.31;42.95;97199.22;5027192;28;20282;-74
2023/09/01 07:55:31;;;;;;;1.70;1.60;;;;;;;25.92;44.19;97192.78;5028432;28;20218;-73
2023/09/01 07:57:59;;;;;;;4.27;1.60;;;;;;;26.09;43.05;97201.66;5028404;28;20190;-77
2023/09/01 08:00:26;;;;;;;2.50;1.70;;;;;;;26.29;42.08;97203.88;5028504;28;20278;-76
2023/09/01 08:02:53;;;;;;;2.17;1.50;;;;;;;26.46;42.64;97210.03;5027292;28;20222;-72
2023/09/01 08:05:22;;;;;;;1.97;1.60;;;;;;;26.43;42.11;97194.41;5028865;28;20222;-78
2023/09/01 08:07:51;;;;;;;1.60;1.50;;;;;;;26.40;42.61;97215.97;5028092;28;20217;-73
2023/09/01 08:10:18;;;;;;;2.67;1.87;;;;;;;26.39;42.39;97195.75;5026741;28;20212;-75
2023/09/01 08:12:45;;;;;;;2.50;1.80;;;;;;;26.29;43.33;97205.69;5028282;28;20225;-76
2023/09/01 08:15:13;;;;;;;2.53;1.50;;;;;;;26.50;42.83;97214.03;5026815;28;20670;-75
2023/09/01 08:17:40;;;;;;;3.87;1.60;;;;;;;26.58;42.73;97208.72;5027705;28;20734;-73
2023/09/01 08:20:09;;;;;;;4.00;1.73;;;;;;;26.54;43.72;97188.78;5026733;28;20205;-74
2023/09/01 08:22:40;;;;;;;2.67;1.70;;;;;;;26.42;44.92;97190.13;5026457;28;20249;-76
2023/09/01 08:25:09;;;;;;;2.70;2.17;;;;;;;26.81;43.84;97200.94;5027591;28;20281;-73
2023/09/01 08:27:36;;;;;;;2.70;1.90;;;;;;;26.73;43.86;97191.13;5026220;28;20217;-75
2023/09/01 08:30:04;;;;;;;3.93;2.73;;;;;;;26.76;42.08;97188.16;5027125;28;20205;-75
2023/09/01 08:32:33;;;;;;;2.83;1.63;;;;;;;26.91;42.41;97197.13;5027440;28;20190;-77
2023/09/01 08:35:03;;;;;;;1.80;1.50;;;;;;;26.51;43.17;97211.19;5009510;28;20546;-75
2023/09/01 08:37:32;;;;;;;1.50;1.40;;;;;;;26.06;43.77;97199.28;5027581;28;20190;-73
2023/09/01 08:39:59;;;;;;;1.63;1.53;;;;;;;26.07;43.97;97204.47;5026290;28;20194;-78
2023/09/01 08:43:07;;;;;;;3.03;2.20;;;;;;;26.10;43.73;97190.88;5064755;28;20366;-75
2023/09/01 08:45:50;;;;;;;1.80;1.70;;;;;;;26.09;44.14;97212.28;5030995;28;20624;-80
2023/09/01 08:48:32;;;;;;;2.13;1.50;;;;;;;26.36;43.44;97212.81;5033098;28;20189;-75
2023/09/01 08:51:00;;;;;;;2.17;1.70;;;;;;;26.37;43.26;97201.22;5067759;28;20194;-81
2023/09/01 08:53:28;;;;;;;2.03;1.70;;;;;;;26.29;43.33;97184.44;5071524;28;20200;-74
2023/09/01 08:55:56;;;;;;;1.90;1.80;;;;;;;26.66;43.54;97208.72;5070168;28;20197;-76
2023/09/01 08:58:23;;;;;;;2.27;1.70;;;;;;;26.73;43.17;97216.91;5088644;28;20197;-73
2023/09/01 09:00:51;;;;;;;3.90;1.90;;;;;;;26.65;43.27;97207.03;5035653;28;20242;-76
2023/09/01 09:03:21;;;;;;;5.67;2.17;;;;;;;26.59;43.74;97178.47;5049283;28;20221;-80
2023/09/01 09:05:49;;;;;;;1.70;1.60;;;;;;;26.50;42.76;97214.84;5067836;28;20189;-74
2023/09/01 09:08:17;;;;;;;2.93;1.93;;;;;;;26.35;42.92;97194.41;5066853;28;20193;-75
2023/09/01 09:10:48;;;;;;;2.10;1.77;;;;;;;26.34;42.15;97187.41;5048117;28;20197;-76
2023/09/01 09:13:29;;;;;;;2.53;1.67;;;;;;;26.67;42.25;97209.56;5049172;28;20207;-79
2023/09/01 09:16:16;;;;;;;1.80;1.70;;;;;;;26.60;42.19;97210.19;5032487;28;20640;-82
2023/09/01 09:18:46;;;;;;;1.87;1.70;;;;;;;26.74;42.65;97199.94;5067448;28;20289;-82
2023/09/01 09:21:28;;;;;;;4.07;3.13;;;;;;;26.71;42.60;97205.56;5051243;28;20257;-78
2023/09/01 09:24:01;;;;;;;2.37;1.80;;;;;;;26.63;42.34;97206.38;5049425;28;20779;-81
2023/09/01 09:26:31;;;;;;;1.60;1.50;;;;;;;26.66;41.91;97198.09;5066848;28;20189;-79
2023/09/01 09:29:06;;;;;;;2.70;2.10;;;;;;;26.96;41.50;97199.25;5048662;28;20186;-81
2023/09/01 09:31:37;;;;;;;2.33;2.13;;;;;;;26.98;40.55;97183.97;5048771;28;20256;-76
2023/09/01 09:34:17;;;;;;;1.90;1.80;;;;;;;27.13;40.89;97198.25;5032695;28;20247;-80
2023/09/01 09:36:52;;;;;;;3.23;2.20;;;;;;;27.25;40.63;97176.44;5066330;28;20200;-75
2023/09/01 09:39:23;;;;;;;2.43;2.23;;;;;;;27.34;39.74;97183.47;5031315;28;20193;-78
2023/09/01 09:41:52;;;;;;;2.97;1.90;;;;;;;27.04;41.19;97149.56;5048615;28;20324;-80
2023/09/01 09:44:33;;;;;;;5.10;2.63;;;;;;;27.48;40.23;97179.25;5049574;28;20224;-78
2023/09/01 09:47:12;;;;;;;2.17;1.97;;;;;;;27.40;39.56;97168.63;5049045;28;20207;-80
2023/09/01 09:49:42;;;;;;;2.40;2.13;;;;;;;27.46;39.26;97185.72;5055055;28;20196;-82
2023/09/01 09:52:25;;;;;;;2.00;1.90;;;;;;;27.52;39.37;97195.69;5067708;28;20246;-76
2023/09/01 09:54:57;;;;;;;1.77;1.60;;;;;;;27.49;38.79;97186.25;5085954;28;20216;-75
2023/09/01 09:57:26;;;;;;;2.30;1.90;;;;;;;27.70;38.81;97181.16;5069009;28;20199;-77
2023/09/01 10:00:10;;;;;;;2.27;2.07;;;;;;;27.50;39.15;97166.59;5086977;28;20613;-76
2023/09/01 10:02:56;;;;;;;2.83;2.50;;;;;;;27.66;38.33;97171.84;5089985;28;20532;-77
2023/09/01 10:05:24;;;;;;;2.67;2.47;;;;;;;27.72;38.26;97159.69;5088755;28;20188;-81
2023/09/01 10:07:53;;;;;;;2.33;2.13;;;;;;;27.55;38.27;97168.75;5069191;28;20188;-82
2023/09/01 10:10:21;;;;;;;3.33;2.10;;;;;;;27.84;38.55;97172.44;5053525;28;20231;-77
2023/09/01 10:12:50;;;;;;;3.13;2.13;;;;;;;28.02;39.30;97167.72;5068545;28;20189;-75
2023/09/01 10:15:18;;;;;;;2.03;1.83;;;;;;;27.86;38.80;97162.44;5086712;28;20193;-75
2023/09/01 10:17:48;;;;;;;3.83;2.40;;;;;;;27.82;38.99;97163.78;5068619;28;20196;-74
2023/09/01 10:20:16;;;;;;;3.30;2.43;;;;;;;28.13;38.57;97166.50;5086385;28;20211;-79
2023/09/01 10:22:44;;;;;;;3.63;2.40;;;;;;;28.24;39.09;97175.91;5088783;28;20247;-77
2023/09/01 10:25:16;;;;;;;3.43;2.53;;;;;;;28.07;38.99;97175.16;5088085;28;20201;-79
2023/09/01 10:28:11;;;;;;;3.53;2.70;;;;;;;28.44;38.08;97164.59;5052231;28;20635;-77
2023/09/01 10:30:43;;;;;;;3.33;2.30;;;;;;;28.41;38.30;97175.63;5085707;28;20303;-75
2023/09/01 10:33:26;;;;;;;2.93;2.00;;;;;;;28.23;37.70;97185.75;5067762;28;20191;-77
2023/09/01 10:35:59;;;;;;;3.70;2.73;;;;;;;28.58;38.31;97171.03;5085830;28;20705;-77
2023/09/01 10:38:33;;;;;;;2.50;2.30;;;;;;;28.24;37.62;97176.72;5067637;28;20279;-80
2023/09/01 10:41:02;;;;;;;2.40;2.10;;;;;;;27.94;37.80;97198.84;5085934;28;20220;-78
2023/09/01 10:43:35;;;;;;;2.73;2.37;;;;;;;27.79;38.63;97184.59;5067274;28;20220;-82
2023/09/01 10:46:13;;;;;;;2.47;2.27;;;;;;;28.13;38.43;97187.81;5068651;28;20271;-77
2023/09/01 10:48:57;;;;;;;2.23;2.13;;;;;;;27.83;37.96;97180.59;5068166;28;20529;-82
2023/09/01 10:51:26;;;;;;;3.07;2.60;;;;;;;27.94;37.52;97166.91;5068071;28;20649;-74
2023/09/01 10:53:57;;;;;;;3.40;2.40;;;;;;;28.09;37.01;97178.47;5068045;28;20196;-79
2023/09/01 10:56:24;;;;;;;2.20;2.00;;;;;;;27.57;38.12;97156.09;5086062;28;20284;-80
2023/09/01 10:58:55;;;;;;;2.93;2.30;;;;;;;27.85;36.09;97171.44;5086974;28;20197;-76
2023/09/01 11:01:33;;;;;;;3.47;2.37;;;;;;;28.09;36.79;97170.50;5089101;28;20648;-75
2023/09/01 11:04:22;;;;;;;2.43;2.20;;;;;;;28.33;37.60;97174.84;5087344;28;20212;-74
2023/09/01 11:06:59;;;;;;;2.33;2.00;;;;;;;27.97;37.43;97174.56;5054996;28;20192;-82
2023/09/01 11:09:33;;;;;;;2.57;2.13;;;;;;;27.77;38.30;97170.66;5089860;28;20199;-83
2023/09/01 11:12:01;;;;;;;2.83;2.10;;;;;;;28.11;37.52;97179.13;5055684;28;20233;-83
2023/09/01 11:14:29;;;;;;;2.53;2.00;;;;;;;28.10;37.60;97154.34;5076288;28;20215;-75
2023/09/01 11:16:56;;;;;;;2.27;2.07;;;;;;;28.17;37.44;97165.16;5092009;28;20205;-79
2023/09/01 11:19:24;;;;;;;2.27;2.00;;;;;;;28.30;37.39;97173.38;5071693;28;20205;-77
2023/09/01 11:21:51;;;;;;;2.63;2.40;;;;;;;28.11;37.66;97184.47;5071457;28;20200;-78
2023/09/01 11:24:22;;;;;;;2.00;1.90;;;;;;;28.15;37.13;97177.81;5055464;28;20224;-75
2023/09/01 11:26:50;;;;;;;2.50;2.30;;;;;;;28.30;38.07;97165.38;5090249;28;20216;-80
2023/09/01 11:29:19;;;;;;;2.73;2.30;;;;;;;28.21;37.95;97173.59;5055325;28;20197;-76
2023/09/01 11:31:46;;;;;;;3.10;2.23;;;;;;;28.13;37.65;97182.47;5089207;28;20185;-80
2023/09/01 11:34:14;;;;;;;2.60;2.27;;;;;;;28.15;39.05;97177.81;5089395;28;20345;-73
2023/09/01 11:36:49;;;;;;;3.20;2.63;;;;;;;28.03;39.44;97163.22;5055069;28;20291;-81
2023/09/01 11:39:18;;;;;;;2.67;2.47;;;;;;;28.01;38.86;97189.19;5071067;28;20275;-74
2023/09/01 11:41:46;;;;;;;3.80;2.50;;;;;;;27.98;39.75;97174.41;5071484;28;20310;-75
2023/09/01 11:44:14;;;;;;;2.70;2.50;;;;;;;28.26;38.62;97163.22;5054448;28;20228;-73
2023/09/01 11:46:44;;;;;;;3.20;2.90;;;;;;;28.33;39.23;97169.53;5071139;28;20258;-76
2023/09/01 11:49:15;;;;;;;2.93;2.47;;;;;;;28.44;38.40;97164.59;5089446;28;20204;-78